Time;durP1;ratioP1;P1;durP2;ratioP2;P2;SDS_P1;SDS_P2;PMS_P1;PMS_P2;Temp;Humidity;BMP_temperature;BMP_pressure;BME280_temperature;BME280_humidity;BME280_pressure;Samples;Min_cycle;Max_cycle;Signal;HPM_P1;HPM_P2
2022/09/28 00:02:23;;;;;;;6.90;6.60;;;11.10;99.90;;;;;;10467817;28;20744;-80
2022/09/28 00:07:26;;;;;;;6.73;6.43;;;11.20;99.90;;;;;;10457701;28;20221;-80
2022/09/28 00:12:29;;;;;;;6.87;6.40;;;11.20;99.90;;;;;;10477100;28;20194;-82
2022/09/28 00:17:31;;;;;;;6.77;6.40;;;11.20;99.90;;;;;;10455090;28;20221;-81
2022/09/28 00:22:35;;;;;;;6.60;6.30;;;11.20;99.90;;;;;;10463461;28;20210;-81
2022/09/28 00:27:37;;;;;;;6.80;6.40;;;11.30;99.90;;;;;;10463897;28;20245;-80
2022/09/28 00:32:39;;;;;;;6.80;6.40;;;11.30;99.90;;;;;;10476077;28;20209;-81
2022/09/28 00:37:42;;;;;;;6.60;6.30;;;11.20;99.90;;;;;;10481174;28;20253;-81
2022/09/28 00:42:44;;;;;;;6.93;6.63;;;11.20;99.90;;;;;;10465785;28;20223;-82
2022/09/28 00:47:50;;;;;;;7.07;6.50;;;11.30;99.90;;;;;;10471973;28;20659;-81
2022/09/28 00:52:58;;;;;;;6.57;6.27;;;11.30;99.90;;;;;;10453039;28;20197;-81
2022/09/28 00:58:05;;;;;;;6.80;6.50;;;11.20;99.90;;;;;;10475080;28;20248;-81
2022/09/28 01:03:07;;;;;;;7.27;6.97;;;11.30;99.90;;;;;;10451738;28;20661;-81
2022/09/28 01:08:13;;;;;;;7.30;7.00;;;11.30;99.90;;;;;;10470602;28;20201;-81
2022/09/28 01:13:17;;;;;;;6.80;6.60;;;11.30;99.90;;;;;;10479851;28;20564;-82
2022/09/28 01:18:29;;;;;;;7.57;7.03;;;11.30;99.90;;;;;;10471716;28;20699;-81
2022/09/28 01:24:10;;;;;;;7.77;7.10;;;11.40;99.90;;;;;;10468578;28;20201;-81
2022/09/28 01:29:20;;;;;;;7.23;6.93;;;11.40;99.90;;;;;;10426951;28;20225;-81
2022/09/28 01:34:28;;;;;;;6.93;6.63;;;11.40;99.90;;;;;;10464359;28;20193;-81
2022/09/28 01:39:34;;;;;;;7.37;6.97;;;11.40;99.90;;;;;;10469231;28;20213;-81
2022/09/28 01:44:43;;;;;;;8.00;7.27;;;11.40;99.90;;;;;;10447652;28;20201;-81
2022/09/28 01:49:49;;;;;;;7.67;7.27;;;11.40;99.90;;;;;;10465210;28;20223;-79
2022/09/28 01:54:55;;;;;;;7.50;7.10;;;11.50;99.90;;;;;;10456492;28;20201;-80
2022/09/28 02:00:04;;;;;;;7.43;7.07;;;11.50;99.90;;;;;;10447087;28;20227;-79
2022/09/28 02:05:20;;;;;;;8.30;7.47;;;11.50;99.90;;;;;;10467459;28;20208;-79
2022/09/28 02:10:27;;;;;;;8.47;7.90;;;11.60;99.90;;;;;;10472200;28;20228;-81
2022/09/28 02:15:36;;;;;;;8.50;7.90;;;11.60;99.90;;;;;;10454394;28;20653;-80
2022/09/28 02:20:41;;;;;;;8.00;7.60;;;11.70;99.90;;;;;;10455588;28;20218;-81
2022/09/28 02:25:48;;;;;;;8.23;7.53;;;11.70;99.90;;;;;;10458089;28;20205;-80
2022/09/28 02:30:53;;;;;;;8.07;7.60;;;11.80;99.90;;;;;;10458587;28;20224;-81
2022/09/28 02:35:57;;;;;;;7.90;7.40;;;11.80;99.90;;;;;;10475561;28;20293;-81
2022/09/28 02:41:06;;;;;;;8.37;7.87;;;11.90;99.90;;;;;;10472932;28;20232;-81
2022/09/28 02:46:23;;;;;;;7.53;7.03;;;11.90;99.90;;;;;;10458429;28;20303;-80
2022/09/28 02:51:38;;;;;;;7.63;7.13;;;12.00;99.90;;;;;;10478705;28;20595;-81
2022/09/28 02:56:56;;;;;;;7.30;6.60;;;12.00;99.90;;;;;;10464696;28;20212;-80
2022/09/28 03:02:04;;;;;;;7.30;6.90;;;12.00;99.90;;;;;;10484390;28;20205;-81
2022/09/28 03:07:16;;;;;;;8.30;7.80;;;12.10;99.90;;;;;;10485052;28;20662;-80
2022/09/28 03:12:22;;;;;;;8.47;7.97;;;12.00;99.90;;;;;;10486862;28;20220;-80
2022/09/28 03:17:26;;;;;;;8.97;8.37;;;12.00;99.90;;;;;;10468910;28;20233;-80
2022/09/28 03:22:28;;;;;;;7.87;7.37;;;12.00;99.90;;;;;;10474977;28;20209;-80
2022/09/28 03:27:30;;;;;;;7.60;7.00;;;12.00;99.90;;;;;;10480379;28;20772;-82
2022/09/28 03:32:34;;;;;;;7.30;6.70;;;11.90;99.90;;;;;;10464332;28;20232;-80
2022/09/28 03:37:36;;;;;;;7.73;7.00;;;11.80;99.90;;;;;;10483975;28;20217;-82
2022/09/28 03:42:39;;;;;;;9.83;8.90;;;11.80;99.90;;;;;;10468306;28;20221;-83
2022/09/28 03:47:47;;;;;;;9.73;9.13;;;11.80;99.90;;;;;;10476963;28;20640;-82
2022/09/28 03:52:49;;;;;;;9.60;9.10;;;11.80;99.90;;;;;;10483926;28;20205;-81
2022/09/28 03:57:54;;;;;;;9.67;9.00;;;11.80;99.90;;;;;;10484241;28;20287;-82
2022/09/28 04:02:57;;;;;;;10.57;9.97;;;11.80;99.90;;;;;;10464525;28;20312;-81
2022/09/28 04:08:01;;;;;;;11.80;10.80;;;11.80;99.90;;;;;;10484935;28;20283;-82
2022/09/28 04:13:03;;;;;;;11.10;10.50;;;11.90;99.90;;;;;;10487795;28;20216;-82
2022/09/28 04:18:09;;;;;;;7.80;7.20;;;11.90;99.90;;;;;;10485713;28;20209;-82
2022/09/28 04:23:36;;;;;;;11.63;11.03;;;11.90;99.90;;;;;;10486935;28;20220;-82
2022/09/28 04:34:16;;;;;;;8.97;8.67;;;11.80;99.90;;;;;;10374655;28;20197;-83
2022/09/28 04:39:18;;;;;;;7.80;7.50;;;11.80;99.90;;;;;;10468540;28;20217;-82
2022/09/28 04:44:24;;;;;;;10.37;9.77;;;11.80;99.90;;;;;;10501749;28;20190;-82
2022/09/28 04:49:35;;;;;;;10.37;9.90;;;11.80;99.90;;;;;;10462586;28;20777;-82
2022/09/28 04:54:42;;;;;;;11.77;11.27;;;11.80;99.90;;;;;;10485371;28;20201;-83
2022/09/28 04:59:44;;;;;;;10.47;9.90;;;11.80;99.90;;;;;;10478751;28;20220;-83
2022/09/28 05:04:47;;;;;;;17.03;15.30;;;11.80;99.90;;;;;;10484044;28;20197;-82
2022/09/28 05:10:02;;;;;;;13.90;12.73;;;11.80;99.90;;;;;;10469048;28;20220;-83
2022/09/28 05:15:07;;;;;;;12.73;11.90;;;11.70;99.90;;;;;;10453644;28;20200;-82
2022/09/28 05:20:11;;;;;;;9.80;9.20;;;11.70;99.90;;;;;;10448520;28;20213;-82
2022/09/28 05:25:13;;;;;;;11.73;11.07;;;11.70;99.90;;;;;;10462611;28;20212;-82
2022/09/28 05:30:37;;;;;;;11.23;10.70;;;11.70;99.90;;;;;;10445705;28;20642;-83
2022/09/28 05:36:09;;;;;;;11.67;11.10;;;11.70;99.90;;;;;;10446371;28;20228;-83
2022/09/28 05:41:12;;;;;;;11.23;10.73;;;11.60;99.90;;;;;;10442351;28;20202;-82
2022/09/28 05:46:14;;;;;;;10.30;9.90;;;11.60;99.90;;;;;;10442161;28;20307;-82
2022/09/28 05:51:18;;;;;;;11.20;10.60;;;11.60;99.90;;;;;;10459972;28;20205;-82
2022/09/28 05:56:20;;;;;;;11.80;11.00;;;11.60;99.90;;;;;;10461401;28;20215;-82
2022/09/28 06:01:24;;;;;;;8.93;8.53;;;11.60;99.90;;;;;;10443392;28;20255;-83
2022/09/28 06:06:28;;;;;;;10.80;10.30;;;11.60;99.90;;;;;;10443665;28;20213;-82
2022/09/28 06:11:31;;;;;;;8.03;7.43;;;11.60;99.90;;;;;;10442051;28;20201;-82
2022/09/28 06:16:37;;;;;;;11.47;10.80;;;11.60;99.90;;;;;;10460790;28;20212;-83
2022/09/28 06:21:42;;;;;;;9.73;9.23;;;11.60;99.90;;;;;;10441926;28;20744;-83
2022/09/28 06:26:45;;;;;;;11.97;11.37;;;11.60;99.90;;;;;;10458732;28;20267;-82
2022/09/28 06:31:48;;;;;;;11.43;10.73;;;11.70;99.90;;;;;;10447521;28;20201;-81
2022/09/28 06:36:52;;;;;;;12.77;11.73;;;11.70;99.90;;;;;;10469688;28;20212;-81
2022/09/28 06:41:57;;;;;;;11.77;11.17;;;11.70;99.90;;;;;;10465103;28;20232;-81
2022/09/28 06:47:08;;;;;;;11.90;11.10;;;11.70;99.90;;;;;;10467946;28;20285;-81
2022/09/28 06:52:31;;;;;;;11.67;11.03;;;11.80;99.90;;;;;;10456396;28;20216;-81
2022/09/28 06:57:40;;;;;;;14.17;13.03;;;11.80;99.90;;;;;;10445773;28;20241;-81
2022/09/28 07:02:43;;;;;;;8.97;8.57;;;11.90;99.90;;;;;;10464565;28;20232;-81
2022/09/28 07:08:13;;;;;;;13.07;12.30;;;11.90;99.90;;;;;;10459322;28;20228;-81
2022/09/28 07:13:18;;;;;;;12.93;11.87;;;11.90;99.90;;;;;;10458906;28;20233;-81
2022/09/28 07:18:28;;;;;;;13.93;12.97;;;11.90;99.90;;;;;;10460008;28;20213;-80
2022/09/28 07:23:32;;;;;;;14.20;13.00;;;11.90;99.90;;;;;;10441846;28;20661;-80
2022/09/28 07:29:09;;;;;;;12.57;11.57;;;12.00;99.90;;;;;;10459756;28;20221;-81
2022/09/28 07:34:30;;;;;;;14.43;13.43;;;12.00;99.90;;;;;;10465655;28;20197;-80
2022/09/28 07:45:00;;;;;;;14.70;13.90;;;12.10;99.90;;;;;;10420852;28;20218;-80
2022/09/28 07:50:02;;;;;;;13.90;12.60;;;12.20;99.90;;;;;;10445959;28;20655;-79
2022/09/28 07:55:32;;;;;;;14.90;13.80;;;12.20;99.90;;;;;;10424260;28;20201;-81
2022/09/28 08:01:02;;;;;;;12.80;12.10;;;12.20;99.90;;;;;;10468787;28;20247;-83
2022/09/28 08:06:08;;;;;;;13.87;12.90;;;12.40;99.90;;;;;;10468840;28;20217;-81
2022/09/28 08:11:13;;;;;;;12.47;11.83;;;12.40;99.90;;;;;;10455035;28;20646;-81
2022/09/28 08:16:38;;;;;;;10.43;9.67;;;12.50;99.90;;;;;;10468145;28;20643;-81
2022/09/28 08:21:48;;;;;;;13.03;12.17;;;12.60;99.90;;;;;;10452335;28;20600;-80
2022/09/28 08:26:54;;;;;;;13.10;12.20;;;12.80;99.90;;;;;;10451480;28;20212;-81
2022/09/28 08:31:58;;;;;;;12.20;11.37;;;12.90;99.90;;;;;;10466598;28;20227;-80
2022/09/28 08:37:09;;;;;;;11.63;10.87;;;13.10;99.90;;;;;;10468428;28;20213;-81
2022/09/28 08:42:50;;;;;;;11.17;10.50;;;13.20;99.90;;;;;;10411673;28;20205;-79
2022/09/28 08:53:58;;;;;;;9.43;8.67;;;13.50;99.90;;;;;;10461329;28;20197;-79
2022/09/28 08:59:12;;;;;;;9.23;8.73;;;13.70;99.90;;;;;;10451059;28;20221;-81
2022/09/28 09:04:17;;;;;;;8.90;8.20;;;13.60;99.90;;;;;;10466585;28;20202;-81
2022/09/28 09:09:56;;;;;;;8.80;8.37;;;13.60;99.90;;;;;;10468193;28;20221;-80
2022/09/28 09:15:16;;;;;;;9.70;9.00;;;13.60;99.90;;;;;;10450190;28;20218;-80
2022/09/28 09:20:25;;;;;;;9.17;8.67;;;13.70;99.90;;;;;;10450965;28;20275;-83
2022/09/28 09:25:41;;;;;;;8.57;7.97;;;13.90;99.90;;;;;;10462795;28;20204;-79
2022/09/28 09:30:55;;;;;;;8.40;7.70;;;14.00;99.90;;;;;;10459977;28;20282;-79
2022/09/28 09:36:05;;;;;;;8.17;7.67;;;14.10;99.90;;;;;;10471639;28;20655;-83
2022/09/28 09:41:42;;;;;;;8.10;7.57;;;14.10;99.90;;;;;;10465105;28;20207;-79
2022/09/28 09:47:26;;;;;;;7.80;7.30;;;14.00;99.90;;;;;;10382682;28;20245;-80
2022/09/28 09:52:43;;;;;;;7.83;7.10;;;14.00;99.90;;;;;;10445687;28;20200;-80
2022/09/28 09:57:51;;;;;;;8.03;7.20;;;14.10;99.90;;;;;;10461082;28;20670;-80
2022/09/28 10:03:19;;;;;;;7.07;6.47;;;14.20;99.90;;;;;;10464433;28;20220;-80
2022/09/28 10:08:23;;;;;;;7.27;6.77;;;14.20;99.90;;;;;;10445986;28;20307;-80
2022/09/28 10:13:28;;;;;;;7.30;6.80;;;14.30;99.90;;;;;;10444771;28;20196;-83
2022/09/28 10:18:33;;;;;;;7.43;6.90;;;14.40;99.90;;;;;;10460988;28;20584;-80
2022/09/28 10:23:57;;;;;;;6.97;6.67;;;14.40;99.90;;;;;;10463267;28;20225;-80
2022/09/28 10:29:10;;;;;;;8.37;7.87;;;14.40;99.90;;;;;;10460649;28;20229;-80
2022/09/28 10:34:16;;;;;;;8.30;7.53;;;14.50;99.90;;;;;;10461183;28;20197;-80
2022/09/28 10:39:31;;;;;;;4.63;4.23;;;14.60;99.90;;;;;;10460425;28;20300;-80
2022/09/28 10:44:38;;;;;;;7.17;6.77;;;14.70;99.90;;;;;;10460597;28;20254;-80
2022/09/28 10:50:00;;;;;;;7.07;6.47;;;14.70;99.90;;;;;;10443967;28;20247;-82
2022/09/28 10:55:24;;;;;;;7.00;6.60;;;14.70;99.90;;;;;;10444184;28;20193;-80
2022/09/28 11:00:32;;;;;;;7.87;7.37;;;14.70;99.90;;;;;;10471853;28;20271;-82
2022/09/28 11:05:59;;;;;;;6.33;5.93;;;14.70;99.90;;;;;;10463648;28;20288;-80
2022/09/28 11:11:07;;;;;;;5.60;5.30;;;14.80;99.90;;;;;;10470629;28;20221;-80
2022/09/28 11:16:23;;;;;;;5.13;4.83;;;14.80;99.90;;;;;;10489230;28;20209;-79
2022/09/28 11:21:30;;;;;;;4.87;4.63;;;14.80;99.90;;;;;;10489115;28;20189;-80
2022/09/28 11:26:42;;;;;;;6.33;5.70;;;14.80;99.90;;;;;;10484005;28;20376;-79
2022/09/28 11:31:52;;;;;;;5.63;5.23;;;14.80;99.90;;;;;;10465224;28;20213;-80
2022/09/28 11:37:27;;;;;;;4.63;4.33;;;14.80;99.90;;;;;;10466070;28;20696;-82
2022/09/28 11:42:43;;;;;;;5.23;4.90;;;14.70;99.90;;;;;;10463272;28;20212;-79
2022/09/28 11:47:59;;;;;;;4.90;4.60;;;14.70;99.90;;;;;;10483241;28;20209;-81
2022/09/28 11:53:17;;;;;;;4.80;4.40;;;14.60;99.90;;;;;;10505996;22;20588;-79
2022/09/28 11:58:27;;;;;;;5.03;4.60;;;14.60;99.90;;;;;;10481775;28;20212;-78
2022/09/28 12:03:39;;;;;;;4.77;4.00;;;14.60;99.90;;;;;;10482799;28;20554;-78
2022/09/28 12:08:47;;;;;;;3.60;3.30;;;14.60;99.90;;;;;;10484057;28;20208;-78
2022/09/28 12:14:18;;;;;;;4.77;4.37;;;14.70;99.90;;;;;;10484697;28;20200;-78
2022/09/28 12:19:28;;;;;;;6.53;4.33;;;14.70;99.90;;;;;;10501103;28;20205;-78
2022/09/28 12:24:37;;;;;;;4.37;4.07;;;14.80;99.90;;;;;;10502507;28;20196;-78
2022/09/28 12:29:43;;;;;;;4.73;4.17;;;14.90;99.90;;;;;;10419003;28;20221;-78
2022/09/28 12:34:45;;;;;;;5.20;4.60;;;15.00;99.90;;;;;;10419811;28;20276;-78
2022/09/28 12:40:03;;;;;;;4.87;4.47;;;15.10;99.90;;;;;;10503587;28;20216;-78
2022/09/28 12:45:20;;;;;;;4.20;3.90;;;15.20;99.90;;;;;;10476434;28;20235;-78
2022/09/28 12:50:30;;;;;;;4.37;4.10;;;15.20;99.90;;;;;;10502747;28;20232;-78
2022/09/28 12:55:48;;;;;;;4.30;3.97;;;15.20;99.90;;;;;;10483095;28;20192;-78
2022/09/28 13:01:01;;;;;;;4.70;4.40;;;15.30;99.90;;;;;;10501283;28;20239;-78
2022/09/28 13:06:41;;;;;;;4.00;3.80;;;15.30;99.90;;;;;;10481729;28;20196;-78
2022/09/28 13:11:54;;;;;;;4.37;4.07;;;15.30;99.90;;;;;;10500401;28;20295;-78
2022/09/28 13:17:02;;;;;;;4.70;4.50;;;15.30;99.90;;;;;;10500012;28;20204;-78
2022/09/28 13:22:20;;;;;;;4.47;4.00;;;15.40;99.90;;;;;;10499543;28;20220;-78
2022/09/28 13:27:29;;;;;;;3.23;3.03;;;15.40;99.90;;;;;;10498597;28;20283;-78
2022/09/28 13:32:34;;;;;;;4.30;4.00;;;15.30;99.90;;;;;;10499216;28;20213;-78
2022/09/28 13:37:36;;;;;;;4.43;3.73;;;15.30;99.90;;;;;;10498742;28;20203;-78
2022/09/28 13:43:07;;;;;;;3.70;3.60;;;15.30;99.90;;;;;;10479072;28;20212;-78
2022/09/28 13:48:17;;;;;;;3.80;3.60;;;15.30;99.90;;;;;;10433412;28;20324;-78
2022/09/28 13:53:31;;;;;;;4.33;4.13;;;15.20;99.90;;;;;;10443129;28;20601;-78
2022/09/28 13:58:43;;;;;;;4.20;3.87;;;15.20;99.90;;;;;;10458888;28;20559;-78
2022/09/28 14:03:54;;;;;;;3.90;3.70;;;15.10;99.90;;;;;;10497538;28;20254;-78
2022/09/28 14:09:30;;;;;;;3.30;3.00;;;15.10;99.90;;;;;;10488169;28;20213;-78
2022/09/28 14:14:48;;;;;;;4.43;4.13;;;15.10;99.90;;;;;;10435495;28;20213;-78
2022/09/28 14:19:53;;;;;;;2.57;2.47;;;15.10;99.90;;;;;;10432924;28;20205;-78
2022/09/28 14:25:13;;;;;;;4.40;4.10;;;15.00;99.90;;;;;;10421070;28;20265;-78
2022/09/28 14:30:25;;;;;;;4.23;4.00;;;15.00;99.90;;;;;;10417085;28;20222;-78
2022/09/28 14:35:31;;;;;;;4.17;3.97;;;15.00;99.90;;;;;;10433282;28;20230;-78
2022/09/28 14:41:11;;;;;;;4.60;4.33;;;14.90;99.90;;;;;;10420189;28;20205;-78
2022/09/28 14:46:35;;;;;;;4.57;4.27;;;14.90;99.90;;;;;;10427509;28;20190;-78
2022/09/28 14:52:02;;;;;;;4.40;4.20;;;14.90;99.90;;;;;;10444413;28;20602;-78
2022/09/28 14:57:16;;;;;;;4.57;4.37;;;14.90;99.90;;;;;;10461502;28;20728;-78
2022/09/28 15:02:30;;;;;;;4.90;4.40;;;14.80;99.90;;;;;;10412007;28;20232;-78
2022/09/28 15:07:53;;;;;;;3.30;3.17;;;14.80;99.90;;;;;;10413504;28;20604;-78
2022/09/28 15:12:56;;;;;;;4.30;4.10;;;14.80;99.90;;;;;;10506280;28;20219;-78
2022/09/28 15:18:20;;;;;;;3.30;3.10;;;14.70;99.90;;;;;;10505442;28;20196;-78
2022/09/28 15:23:27;;;;;;;3.80;3.60;;;14.70;99.90;;;;;;10484761;28;20215;-78
2022/09/28 15:28:30;;;;;;;4.20;3.90;;;14.60;99.90;;;;;;10501827;28;20217;-78
2022/09/28 15:39:00;;;;;;;4.13;3.87;;;14.60;99.90;;;;;;10445527;28;20203;-78
2022/09/28 15:44:27;;;;;;;3.80;3.50;;;14.50;99.90;;;;;;10450918;28;20246;-78
2022/09/28 15:49:37;;;;;;;2.63;2.53;;;14.50;99.90;;;;;;10483269;28;20218;-78
2022/09/28 15:54:43;;;;;;;4.43;4.13;;;14.50;99.90;;;;;;10481829;28;20293;-78
2022/09/28 15:59:55;;;;;;;3.20;3.00;;;14.40;99.90;;;;;;10499212;28;20243;-78
2022/09/28 16:05:00;;;;;;;4.23;3.83;;;14.40;99.90;;;;;;10455503;28;20193;-80
2022/09/28 16:10:25;;;;;;;4.70;4.40;;;14.40;99.90;;;;;;10460109;28;20221;-81
2022/09/28 16:15:33;;;;;;;3.60;3.27;;;14.30;99.90;;;;;;10457783;28;20626;-81
2022/09/28 16:20:36;;;;;;;4.83;4.53;;;14.30;99.90;;;;;;10452880;28;20221;-80
2022/09/28 16:25:38;;;;;;;4.70;4.30;;;14.30;99.90;;;;;;10470597;28;20190;-80
2022/09/28 16:30:59;;;;;;;3.90;3.70;;;14.30;99.90;;;;;;10474351;28;20262;-80
2022/09/28 16:36:02;;;;;;;4.37;4.00;;;14.20;99.90;;;;;;10500062;28;20295;-80
2022/09/28 16:41:05;;;;;;;4.23;3.80;;;14.20;99.90;;;;;;10466266;28;20213;-81
2022/09/28 16:46:12;;;;;;;5.80;5.40;;;14.10;99.90;;;;;;10440587;28;20663;-79
2022/09/28 16:51:15;;;;;;;4.73;4.43;;;13.90;99.90;;;;;;10480638;28;20221;-79
2022/09/28 16:56:17;;;;;;;3.83;3.63;;;13.80;99.90;;;;;;10499981;28;20292;-79
2022/09/28 17:01:20;;;;;;;3.87;3.57;;;13.60;99.90;;;;;;10488938;28;20573;-79
2022/09/28 17:06:24;;;;;;;3.70;3.50;;;13.40;99.90;;;;;;10473282;28;20214;-78
2022/09/28 17:11:26;;;;;;;10.03;9.13;;;13.20;99.90;;;;;;10452233;28;20217;-78
2022/09/28 17:16:31;;;;;;;8.10;7.50;;;13.10;99.90;;;;;;10441152;28;20211;-78
2022/09/28 17:21:33;;;;;;;8.83;8.20;;;12.90;99.90;;;;;;10436487;28;20247;-78
2022/09/28 17:26:36;;;;;;;8.93;8.33;;;12.80;99.90;;;;;;10445996;28;20205;-78
2022/09/28 17:31:39;;;;;;;5.23;4.93;;;12.60;99.90;;;;;;10423002;28;20227;-79
2022/09/28 17:36:43;;;;;;;6.70;6.20;;;12.50;99.90;;;;;;10451822;28;20579;-78
2022/09/28 17:41:45;;;;;;;8.17;7.50;;;12.40;99.90;;;;;;10496918;28;20213;-79
2022/09/28 17:46:49;;;;;;;10.60;9.50;;;12.30;99.90;;;;;;10496016;28;20196;-78
2022/09/28 17:51:51;;;;;;;9.83;8.93;;;12.20;99.90;;;;;;10496621;28;20307;-78
2022/09/28 17:56:53;;;;;;;7.60;7.00;;;12.20;99.90;;;;;;10496508;28;20197;-79
2022/09/28 18:01:57;;;;;;;11.60;7.53;;;12.10;99.90;;;;;;10481879;28;20586;-78
2022/09/28 18:06:59;;;;;;;7.63;6.77;;;12.10;99.90;;;;;;10499995;28;20275;-78
2022/09/28 18:12:04;;;;;;;10.83;9.00;;;12.10;99.90;;;;;;10499544;28;20217;-78
2022/09/28 18:17:08;;;;;;;12.30;10.33;;;12.00;99.90;;;;;;10497926;28;20193;-79
2022/09/28 18:22:10;;;;;;;7.30;6.60;;;12.00;99.90;;;;;;10499301;28;20287;-78
2022/09/28 18:27:12;;;;;;;8.77;7.93;;;;;;;;;;10501199;28;20188;-78
2022/09/28 18:32:16;;;;;;;11.07;10.07;;;;;;;;;;10463640;28;20239;-78
2022/09/28 18:37:19;;;;;;;13.97;12.57;;;;;;;;;;10482948;28;20223;-78
2022/09/28 18:42:21;;;;;;;14.70;12.80;;;;;;;;;;10468404;28;20220;-79
2022/09/28 18:47:26;;;;;;;17.03;15.40;;;11.70;99.90;;;;;;10497432;28;20291;-79
2022/09/28 18:52:28;;;;;;;10.20;9.10;;;11.70;99.90;;;;;;10469929;28;20662;-78
2022/09/28 18:57:32;;;;;;;10.63;6.50;;;11.70;99.90;;;;;;10476546;28;20192;-79
2022/09/28 19:02:36;;;;;;;7.47;6.70;;;11.70;99.90;;;;;;10477848;28;20220;-78
2022/09/28 19:07:38;;;;;;;6.23;5.83;;;11.70;99.90;;;;;;10442253;28;20688;-78
2022/09/28 19:12:40;;;;;;;7.73;7.03;;;11.70;99.90;;;;;;10493486;28;20213;-78
2022/09/28 19:17:45;;;;;;;7.30;6.73;;;11.70;99.90;;;;;;10486727;28;20255;-79
2022/09/28 19:22:49;;;;;;;6.03;5.63;;;11.70;99.90;;;;;;10434605;28;20288;-79
2022/09/28 19:27:52;;;;;;;7.57;6.90;;;11.80;99.90;;;;;;10419547;28;20234;-78
2022/09/28 19:32:55;;;;;;;7.80;7.20;;;11.80;99.90;;;;;;10428205;28;20217;-78
2022/09/28 19:37:57;;;;;;;8.30;7.60;;;11.90;99.90;;;;;;10444442;28;20245;-78
2022/09/28 19:43:00;;;;;;;7.50;6.73;;;11.90;99.90;;;;;;10484906;28;20223;-78
2022/09/28 19:48:04;;;;;;;7.43;6.90;;;11.90;99.90;;;;;;10463401;28;20193;-78
2022/09/28 19:53:06;;;;;;;7.87;7.20;;;11.90;99.90;;;;;;10493751;28;20303;-79
2022/09/28 19:58:08;;;;;;;6.60;6.10;;;11.90;99.90;;;;;;10461862;28;20223;-79
2022/09/28 20:03:11;;;;;;;5.40;4.90;;;11.90;99.90;;;;;;10474065;28;20413;-79
2022/09/28 20:08:14;;;;;;;4.97;4.60;;;11.90;99.90;;;;;;10480060;28;20192;-79
2022/09/28 20:13:16;;;;;;;5.60;4.40;;;11.90;99.90;;;;;;10498231;28;20220;-79
2022/09/28 20:18:19;;;;;;;6.07;5.07;;;11.90;99.90;;;;;;10488428;28;20276;-79
2022/09/28 20:23:21;;;;;;;16.10;11.80;;;11.90;99.90;;;;;;10496983;28;20217;-78
2022/09/28 20:28:24;;;;;;;8.80;6.57;;;11.90;99.90;;;;;;10498423;28;20200;-79
2022/09/28 20:33:27;;;;;;;6.73;6.10;;;11.90;99.90;;;;;;10480683;28;20220;-79
2022/09/28 20:38:30;;;;;;;6.07;5.47;;;11.80;99.90;;;;;;10449956;28;20193;-79
2022/09/28 20:43:33;;;;;;;5.57;5.00;;;11.80;99.90;;;;;;10487409;28;20554;-79
2022/09/28 20:48:37;;;;;;;4.60;4.20;;;11.80;99.90;;;;;;10425813;28;20197;-79
2022/09/28 20:53:42;;;;;;;5.20;4.70;;;11.80;99.90;;;;;;10480176;28;20703;-79
2022/09/28 20:58:44;;;;;;;5.53;5.03;;;11.80;99.90;;;;;;10483400;28;20212;-79
2022/09/28 21:03:50;;;;;;;5.57;5.00;;;11.80;99.90;;;;;;10483078;28;20710;-79
2022/09/28 21:08:52;;;;;;;13.60;5.80;;;11.80;99.90;;;;;;10478563;28;20287;-79
2022/09/28 21:13:56;;;;;;;5.90;5.33;;;11.80;99.90;;;;;;10478534;28;20208;-79
2022/09/28 21:19:00;;;;;;;6.50;5.73;;;11.70;99.90;;;;;;10478526;28;20246;-79
2022/09/28 21:24:02;;;;;;;24.90;11.23;;;11.70;99.90;;;;;;10495877;28;20250;-79
2022/09/28 21:29:06;;;;;;;9.50;6.93;;;11.80;99.90;;;;;;10479575;28;20248;-79
2022/09/28 21:34:17;;;;;;;5.07;4.57;;;11.70;99.90;;;;;;10479188;28;20343;-78
2022/09/28 21:39:22;;;;;;;6.93;5.20;;;11.70;99.90;;;;;;10477782;28;20295;-79
2022/09/28 21:44:24;;;;;;;7.40;6.40;;;11.80;99.90;;;;;;10495224;28;20557;-79
2022/09/28 21:49:27;;;;;;;6.97;6.40;;;11.80;99.90;;;;;;10495775;28;20749;-79
2022/09/28 21:54:29;;;;;;;5.57;5.07;;;11.80;99.90;;;;;;10477279;28;20228;-79
2022/09/28 21:59:41;;;;;;;6.50;5.00;;;11.80;99.90;;;;;;10477644;28;20212;-79
2022/09/28 22:04:53;;;;;;;8.43;5.80;;;11.90;99.90;;;;;;10496990;28;20604;-79
2022/09/28 22:09:55;;;;;;;6.30;4.97;;;11.90;99.90;;;;;;10495609;28;20236;-79
2022/09/28 22:14:57;;;;;;;4.90;4.60;;;11.90;99.90;;;;;;10496253;28;20193;-79
2022/09/28 22:20:01;;;;;;;4.77;4.47;;;11.90;99.90;;;;;;10495206;28;20216;-79
2022/09/28 22:25:03;;;;;;;4.87;4.57;;;11.80;99.90;;;;;;10495067;28;20211;-79
2022/09/28 22:30:06;;;;;;;4.13;3.80;;;11.80;99.90;;;;;;10494447;28;20212;-80
2022/09/28 22:35:10;;;;;;;5.27;4.80;;;11.70;99.90;;;;;;10479956;28;20203;-79
2022/09/28 22:40:12;;;;;;;5.60;5.20;;;11.70;99.90;;;;;;10479052;28;20272;-79
2022/09/28 22:45:14;;;;;;;5.57;5.03;;;11.70;99.90;;;;;;10421453;28;20204;-79
2022/09/28 22:50:18;;;;;;;5.83;4.67;;;11.70;99.90;;;;;;10430139;28;20218;-79
2022/09/28 22:55:20;;;;;;;4.60;4.20;;;11.70;99.90;;;;;;10400788;28;20617;-79
2022/09/28 23:00:22;;;;;;;4.67;4.37;;;11.60;99.90;;;;;;10433266;28;20224;-79
2022/09/28 23:05:25;;;;;;;6.40;5.80;;;11.60;99.90;;;;;;10444590;28;20307;-79
2022/09/28 23:10:27;;;;;;;5.20;4.70;;;11.50;99.90;;;;;;10438163;28;20230;-79
2022/09/28 23:15:29;;;;;;;6.37;5.83;;;11.40;99.90;;;;;;10485197;28;20268;-79
2022/09/28 23:20:33;;;;;;;6.67;5.37;;;11.40;99.90;;;;;;10468257;28;20212;-79
2022/09/28 23:25:35;;;;;;;6.80;6.20;;;11.40;99.90;;;;;;10503301;28;20192;-79
2022/09/28 23:30:37;;;;;;;6.70;5.90;;;11.40;99.90;;;;;;10484947;28;20212;-79
2022/09/28 23:35:41;;;;;;;6.00;5.40;;;11.40;99.90;;;;;;10502355;28;20200;-79
2022/09/28 23:40:43;;;;;;;8.73;7.90;;;11.50;99.90;;;;;;10502754;28;20238;-79
2022/09/28 23:45:46;;;;;;;5.70;5.30;;;11.40;99.90;;;;;;10502524;28;20259;-80
2022/09/28 23:50:49;;;;;;;6.20;5.30;;;11.40;99.90;;;;;;10531401;22;20214;-80
2022/09/28 23:55:51;;;;;;;5.40;5.00;;;11.40;99.90;;;;;;10550697;28;20269;-80
